Terminal Aerodrome Forecast
Issued by NWS Atlanta, GA

Home | Current Version | Previous Version | Text Only | Print | Product List | Glossary On
Versions: 1 2 3 4 5 6 7 8 9 10 11 12 13 14 15 16 17 18 19 20 21 22 23 24 25 26 27 28 29 30 31 32 33 34
000
FTUS42 KFFC 280300 AAA
TAFAHN
TAF AMD
KAHN 280330Z 2804/2824 25005KT P6SM FEW050 SCT140
     FM281000 25006KT 5SM BR VCSH SCT040 SCT100
      TEMPO 2811/2814 5SM TSRA BKN030CB
     FM281400 27010KT P6SM VCSH BKN050
     FM281800 30010G19KT P6SM SCT040 BKN120=

USA.gov is the U.S. government's official web portal to all federal, state and local government web resources and services.